PWSweather.com
Personal Weather Stations
Station Observations
AC5CV
Greenleaf Peninsula, Waco, TX 76710

Greenleaf PeninsulaWaco, TX 76710

Lat: 31.565, Lon: -97.198

Elevation: 570

Station Type: Ambient WS2080

http://johnchamber.dyndns.info/

High Low Average
Temperature 93.0°F33.9°C 77.0°F25.0°C 83.1°F28.4°C
Dew Point 74.2°F23.4°C 65.6°F18.7°C 69.4°F20.8°C
Winds 13.1 mph 21.1 kmh Calm Calm 2.0 mph S3.2 kmh S
Wind Gusts 22.4 mph36.0 kmh -- 6.0 mph9.7 kmh
Humidity 82% 42% 65%
Pressure 29.42 in996.3 mb 29.27 in991.2 mb -
Precipitation 0.00 in0.0 mm - -
Hour Temp Dew Point Humidity Winds Wind Gusts Pressure Precip Precip Rate Daily Precip Total
12:00 AM 85.5°F29.7°C 66.0°F18.9°C 52% 3.7 mph S6.0 kmh S 9.8 mph15.8 kmh 29.38 in994.9 mb 0.00 in0.0 mm 0.00 in0.0 mm 0.00 in0.0 mm
12:05 AM 85.2°F29.6°C 66.1°F18.9°C 53% 1.8 mph S2.9 kmh S 4.9 mph7.9 kmh 29.38 in994.9 mb 0.00 in0.0 mm 0.00 in0.0 mm 0.00 in0.0 mm
12:10 AM 85.0°F29.4°C 66.3°F19.1°C 54% 2.9 mph S4.7 kmh S 9.8 mph15.8 kmh 29.38 in994.9 mb 0.00 in0.0 mm 0.00 in0.0 mm 0.00 in0.0 mm
12:15 AM 84.7°F29.3°C 66.3°F19.1°C 54% 3.2 mph S5.1 kmh S 9.8 mph15.8 kmh 29.38 in994.9 mb 0.00 in0.0 mm 0.00 in0.0 mm 0.00 in0.0 mm
12:20 AM 84.5°F29.2°C 67.1°F19.5°C 56% 4.1 mph S6.6 kmh S 9.8 mph15.8 kmh 29.38 in994.9 mb 0.00 in0.0 mm 0.00 in0.0 mm 0.00 in0.0 mm
12:25 AM 84.3°F29.1°C 66.9°F19.4°C 56% 4.7 mph S7.6 kmh S 9.8 mph15.8 kmh 29.38 in994.9 mb 0.00 in0.0 mm 0.00 in0.0 mm 0.00 in0.0 mm
12:30 AM 84.2°F29.0°C 67.0°F19.4°C 57% 4.6 mph SE7.4 kmh SE 9.8 mph15.8 kmh 29.38 in994.9 mb 0.00 in0.0 mm 0.00 in0.0 mm 0.00 in0.0 mm
12:35 AM 84.0°F28.9°C 67.1°F19.5°C 57% 2.3 mph S3.7 kmh S 9.8 mph15.8 kmh 29.37 in994.6 mb 0.00 in0.0 mm 0.00 in0.0 mm 0.00 in0.0 mm
12:40 AM 83.8°F28.8°C 67.4°F19.7°C 58% 3.6 mph S5.8 kmh S 9.8 mph15.8 kmh 29.38 in994.9 mb 0.00 in0.0 mm 0.00 in0.0 mm 0.00 in0.0 mm
12:45 AM 83.7°F28.7°C 67.4°F19.7°C 58% 2.5 mph SW4.0 kmh SW 7.4 mph11.9 kmh 29.38 in994.9 mb 0.00 in0.0 mm 0.00 in0.0 mm 0.00 in0.0 mm
12:50 AM 83.6°F28.7°C 67.7°F19.8°C 59% 0.7 mph SW1.1 kmh SW 2.5 mph4.0 kmh 29.38 in994.9 mb 0.00 in0.0 mm 0.00 in0.0 mm 0.00 in0.0 mm
12:55 AM 83.4°F28.6°C 67.8°F19.9°C 60% 2.0 mph SW3.2 kmh SW 4.9 mph7.9 kmh 29.38 in994.9 mb 0.00 in0.0 mm 0.00 in0.0 mm 0.00 in0.0 mm
01:00 AM 83.3°F28.5°C 67.9°F19.9°C 60% 3.6 mph SW5.8 kmh SW 7.4 mph11.9 kmh 29.37 in994.6 mb 0.00 in0.0 mm 0.00 in0.0 mm 0.00 in0.0 mm
01:05 AM 83.2°F28.4°C 68.3°F20.2°C 61% 3.5 mph S5.6 kmh S 7.4 mph11.9 kmh 29.37 in994.6 mb 0.00 in0.0 mm 0.00 in0.0 mm 0.00 in0.0 mm
01:10 AM 83.1°F28.4°C 68.3°F20.2°C 61% 1.6 mph SW2.6 kmh SW 4.9 mph7.9 kmh 29.37 in994.6 mb 0.00 in0.0 mm 0.00 in0.0 mm 0.00 in0.0 mm
01:15 AM 83.1°F28.4°C 68.7°F20.4°C 62% 2.6 mph SW4.2 kmh SW 7.4 mph11.9 kmh 29.37 in994.6 mb 0.00 in0.0 mm 0.00 in0.0 mm 0.00 in0.0 mm
01:20 AM 83.0°F28.3°C 68.6°F20.3°C 62% 1.6 mph S2.6 kmh S 4.9 mph7.9 kmh 29.37 in994.6 mb 0.00 in0.0 mm 0.00 in0.0 mm 0.00 in0.0 mm
01:25 AM 82.9°F28.3°C 68.5°F20.3°C 62% 2.0 mph SW3.2 kmh SW 4.9 mph7.9 kmh 29.37 in994.6 mb 0.00 in0.0 mm 0.00 in0.0 mm 0.00 in0.0 mm
01:30 AM 82.9°F28.3°C 68.5°F20.3°C 62% 1.4 mph SW2.3 kmh SW 4.9 mph7.9 kmh 29.37 in994.6 mb 0.00 in0.0 mm 0.00 in0.0 mm 0.00 in0.0 mm
01:35 AM 82.8°F28.2°C 68.5°F20.3°C 62% 0.9 mph SW1.4 kmh SW 4.9 mph7.9 kmh 29.36 in994.2 mb 0.00 in0.0 mm 0.00 in0.0 mm 0.00 in0.0 mm
01:40 AM 82.8°F28.2°C 68.9°F20.5°C 63% 1.6 mph S2.6 kmh S 4.9 mph7.9 kmh 29.36 in994.2 mb 0.00 in0.0 mm 0.00 in0.0 mm 0.00 in0.0 mm
01:45 AM 82.8°F28.2°C 68.9°F20.5°C 63% 0.6 mph SW1.0 kmh SW 2.5 mph4.0 kmh 29.37 in994.6 mb 0.00 in0.0 mm 0.00 in0.0 mm 0.00 in0.0 mm
01:50 AM 82.6°F28.1°C 68.7°F20.4°C 63% 0.4 mph WSW0.6 kmh WSW 4.9 mph7.9 kmh 29.37 in994.6 mb 0.00 in0.0 mm 0.00 in0.0 mm 0.00 in0.0 mm
01:55 AM 82.5°F28.1°C 68.6°F20.3°C 63% 1.5 mph SW2.4 kmh SW 4.9 mph7.9 kmh 29.37 in994.6 mb 0.00 in0.0 mm 0.00 in0.0 mm 0.00 in0.0 mm
02:00 AM 82.4°F28.0°C 68.6°F20.3°C 63% 0.6 mph WSW1.0 kmh WSW 2.5 mph4.0 kmh 29.36 in994.2 mb 0.00 in0.0 mm 0.00 in0.0 mm 0.00 in0.0 mm
02:05 AM 82.4°F28.0°C 69.0°F20.6°C 64% 1.3 mph SW2.1 kmh SW 4.9 mph7.9 kmh 29.37 in994.6 mb 0.00 in0.0 mm 0.00 in0.0 mm 0.00 in0.0 mm
02:10 AM 82.2°F27.9°C 68.9°F20.5°C 64% 0.7 mph SW1.1 kmh SW 2.5 mph4.0 kmh 29.37 in994.6 mb 0.00 in0.0 mm 0.00 in0.0 mm 0.00 in0.0 mm
02:15 AM 82.2°F27.9°C 69.1°F20.6°C 65% 1.6 mph WSW2.6 kmh WSW 4.9 mph7.9 kmh 29.36 in994.2 mb 0.00 in0.0 mm 0.00 in0.0 mm 0.00 in0.0 mm
02:20 AM 82.2°F27.9°C 69.2°F20.7°C 65% 1.4 mph SSW2.3 kmh SSW 4.9 mph7.9 kmh 29.36 in994.2 mb 0.00 in0.0 mm 0.00 in0.0 mm 0.00 in0.0 mm
02:25 AM 82.1°F27.8°C 69.1°F20.6°C 65% 1.4 mph SW2.3 kmh SW 2.5 mph4.0 kmh 29.36 in994.2 mb 0.00 in0.0 mm 0.00 in0.0 mm 0.00 in0.0 mm
02:30 AM 82.0°F27.8°C 69.0°F20.6°C 65% 1.3 mph WSW2.1 kmh WSW 4.9 mph7.9 kmh 29.36 in994.2 mb 0.00 in0.0 mm 0.00 in0.0 mm 0.00 in0.0 mm
02:35 AM 81.9°F27.7°C 69.2°F20.7°C 66% 1.0 mph WSW1.6 kmh WSW 2.5 mph4.0 kmh 29.36 in994.2 mb 0.00 in0.0 mm 0.00 in0.0 mm 0.00 in0.0 mm
02:40 AM 81.9°F27.7°C 69.4°F20.8°C 66% 1.2 mph SW1.9 kmh SW 2.5 mph4.0 kmh 29.37 in994.6 mb 0.00 in0.0 mm 0.00 in0.0 mm 0.00 in0.0 mm
02:45 AM 81.9°F27.7°C 69.5°F20.8°C 66% 0.7 mph WSW1.1 kmh WSW 2.5 mph4.0 kmh 29.37 in994.6 mb 0.00 in0.0 mm 0.00 in0.0 mm 0.00 in0.0 mm
02:50 AM 81.7°F27.6°C 70.0°F21.1°C 68% 0.4 mph SW0.6 kmh SW 2.5 mph4.0 kmh 29.38 in994.9 mb 0.00 in0.0 mm 0.00 in0.0 mm 0.00 in0.0 mm
02:55 AM 81.6°F27.6°C 70.1°F21.2°C 68% 0.4 mph WSW0.6 kmh WSW 2.5 mph4.0 kmh 29.37 in994.6 mb 0.00 in0.0 mm 0.00 in0.0 mm 0.00 in0.0 mm
03:00 AM 81.5°F27.5°C 70.3°F21.3°C 69% 0.5 mph SW0.8 kmh SW 4.9 mph7.9 kmh 29.38 in994.9 mb 0.00 in0.0 mm 0.00 in0.0 mm 0.00 in0.0 mm
03:05 AM 81.3°F27.4°C 69.7°F20.9°C 68% 1.0 mph SSW1.6 kmh SSW 2.5 mph4.0 kmh 29.38 in994.9 mb 0.00 in0.0 mm 0.00 in0.0 mm 0.00 in0.0 mm
03:10 AM 81.2°F27.3°C 69.6°F20.9°C 68% 1.5 mph SSW2.4 kmh SSW 4.9 mph7.9 kmh 29.38 in994.9 mb 0.00 in0.0 mm 0.00 in0.0 mm 0.00 in0.0 mm
03:15 AM 81.0°F27.2°C 69.6°F20.9°C 68% 0.9 mph SSE1.4 kmh SSE 7.4 mph11.9 kmh 29.38 in994.9 mb 0.00 in0.0 mm 0.00 in0.0 mm 0.00 in0.0 mm
03:20 AM 80.9°F27.2°C 70.2°F21.2°C 70% 0.7 mph SW1.1 kmh SW 2.5 mph4.0 kmh 29.38 in994.9 mb 0.00 in0.0 mm 0.00 in0.0 mm 0.00 in0.0 mm
03:25 AM 80.7°F27.1°C 70.0°F21.1°C 70% 1.1 mph S1.8 kmh S 4.9 mph7.9 kmh 29.38 in994.9 mb 0.00 in0.0 mm 0.00 in0.0 mm 0.00 in0.0 mm
03:30 AM 80.6°F27.0°C 69.9°F21.1°C 70% 1.3 mph S2.1 kmh S 2.5 mph4.0 kmh 29.38 in994.9 mb 0.00 in0.0 mm 0.00 in0.0 mm 0.00 in0.0 mm
03:35 AM 80.4°F26.9°C 69.7°F20.9°C 70% 1.1 mph S1.8 kmh S 4.9 mph7.9 kmh 29.38 in994.9 mb 0.00 in0.0 mm 0.00 in0.0 mm 0.00 in0.0 mm
03:40 AM 80.4°F26.9°C 69.7°F20.9°C 70% 1.8 mph S2.9 kmh S 4.9 mph7.9 kmh 29.38 in994.9 mb 0.00 in0.0 mm 0.00 in0.0 mm 0.00 in0.0 mm
03:45 AM 80.2°F26.8°C 69.5°F20.8°C 70% 0.9 mph SSW1.4 kmh SSW 4.9 mph7.9 kmh 29.38 in994.9 mb 0.00 in0.0 mm 0.00 in0.0 mm 0.00 in0.0 mm
03:50 AM 80.2°F26.8°C 69.5°F20.8°C 70% 0.5 mph S0.8 kmh S 4.9 mph7.9 kmh 29.38 in994.9 mb 0.00 in0.0 mm 0.00 in0.0 mm 0.00 in0.0 mm
03:55 AM 80.1°F26.7°C 69.8°F21.0°C 71% 0.1 mph SW0.2 kmh SW 2.5 mph4.0 kmh 29.39 in995.3 mb 0.00 in0.0 mm 0.00 in0.0 mm 0.00 in0.0 mm
04:00 AM 79.9°F26.6°C 69.6°F20.9°C 71% 0.9 mph SSW1.4 kmh SSW 2.5 mph4.0 kmh 29.38 in994.9 mb 0.00 in0.0 mm 0.00 in0.0 mm 0.00 in0.0 mm
04:05 AM 79.7°F26.5°C 69.4°F20.8°C 71% 0.2 mph SW0.3 kmh SW 2.5 mph4.0 kmh 29.38 in994.9 mb 0.00 in0.0 mm 0.00 in0.0 mm 0.00 in0.0 mm
04:10 AM 79.4°F26.3°C 69.3°F20.7°C 71% 0.2 mph S0.3 kmh S 2.5 mph4.0 kmh 29.39 in995.3 mb 0.00 in0.0 mm 0.00 in0.0 mm 0.00 in0.0 mm
04:15 AM 79.3°F26.3°C 69.5°F20.8°C 72% 0.2 mph SW0.3 kmh SW 2.5 mph4.0 kmh 29.38 in994.9 mb 0.00 in0.0 mm 0.00 in0.0 mm 0.00 in0.0 mm
04:20 AM 79.2°F26.2°C 69.4°F20.8°C 72% 0.1 mph S0.2 kmh S 2.5 mph4.0 kmh 29.39 in995.3 mb 0.00 in0.0 mm 0.00 in0.0 mm 0.00 in0.0 mm
04:25 AM 79.2°F26.2°C 69.4°F20.8°C 72% 0.2 mph S0.3 kmh S 2.5 mph4.0 kmh 29.39 in995.3 mb 0.00 in0.0 mm 0.00 in0.0 mm 0.00 in0.0 mm
04:30 AM 79.0°F26.1°C 69.8°F21.0°C 74% Calm Calm -- 29.39 in995.3 mb 0.00 in0.0 mm 0.00 in0.0 mm 0.00 in0.0 mm
04:35 AM 78.9°F26.1°C 69.8°F21.0°C 74% Calm Calm -- 29.39 in995.3 mb 0.00 in0.0 mm 0.00 in0.0 mm 0.00 in0.0 mm
04:40 AM 78.8°F26.0°C 69.3°F20.7°C 73% 0.3 mph NW0.5 kmh NW 2.5 mph4.0 kmh 29.40 in995.6 mb 0.00 in0.0 mm 0.00 in0.0 mm 0.00 in0.0 mm
04:45 AM 78.8°F26.0°C 69.0°F20.6°C 72% 0.1 mph NW0.2 kmh NW 2.5 mph4.0 kmh 29.39 in995.3 mb 0.00 in0.0 mm 0.00 in0.0 mm 0.00 in0.0 mm
04:50 AM 78.8°F26.0°C 69.5°F20.8°C 73% Calm Calm -- 29.40 in995.6 mb 0.00 in0.0 mm 0.00 in0.0 mm 0.00 in0.0 mm
04:55 AM 78.8°F26.0°C 70.0°F21.1°C 74% 2.1 mph W3.4 kmh W 7.4 mph11.9 kmh 29.40 in995.6 mb 0.00 in0.0 mm 0.00 in0.0 mm 0.00 in0.0 mm
05:00 AM 78.8°F26.0°C 70.1°F21.2°C 75% 0.5 mph WSW0.8 kmh WSW 4.9 mph7.9 kmh 29.39 in995.3 mb 0.00 in0.0 mm 0.00 in0.0 mm 0.00 in0.0 mm
05:05 AM 79.0°F26.1°C 70.0°F21.1°C 74% 0.4 mph NW0.6 kmh NW 2.5 mph4.0 kmh 29.40 in995.6 mb 0.00 in0.0 mm 0.00 in0.0 mm 0.00 in0.0 mm
05:10 AM 79.0°F26.1°C 70.0°F21.1°C 74% 0.5 mph W0.8 kmh W 2.5 mph4.0 kmh 29.40 in995.6 mb 0.00 in0.0 mm 0.00 in0.0 mm 0.00 in0.0 mm
05:15 AM 78.9°F26.1°C 70.3°F21.3°C 75% 0.5 mph WNW0.8 kmh WNW 4.9 mph7.9 kmh 29.39 in995.3 mb 0.00 in0.0 mm 0.00 in0.0 mm 0.00 in0.0 mm
05:20 AM 78.8°F26.0°C 70.6°F21.4°C 76% 0.1 mph WNW0.2 kmh WNW 2.5 mph4.0 kmh 29.40 in995.6 mb 0.00 in0.0 mm 0.00 in0.0 mm 0.00 in0.0 mm
05:25 AM 78.8°F26.0°C 70.6°F21.4°C 76% Calm Calm -- 29.40 in995.6 mb 0.00 in0.0 mm 0.00 in0.0 mm 0.00 in0.0 mm
05:30 AM 78.7°F25.9°C 70.5°F21.4°C 76% Calm Calm -- 29.39 in995.3 mb 0.00 in0.0 mm 0.00 in0.0 mm 0.00 in0.0 mm
05:35 AM 78.5°F25.8°C 70.7°F21.5°C 77% Calm Calm -- 29.39 in995.3 mb 0.00 in0.0 mm 0.00 in0.0 mm 0.00 in0.0 mm
05:40 AM 78.3°F25.7°C 70.5°F21.4°C 77% 0.1 mph NNW0.2 kmh NNW 2.5 mph4.0 kmh 29.40 in995.6 mb 0.00 in0.0 mm 0.00 in0.0 mm 0.00 in0.0 mm
05:45 AM 78.2°F25.7°C 70.4°F21.3°C 77% Calm Calm -- 29.40 in995.6 mb 0.00 in0.0 mm 0.00 in0.0 mm 0.00 in0.0 mm
05:50 AM 77.9°F25.5°C 70.2°F21.2°C 77% Calm Calm -- 29.40 in995.6 mb 0.00 in0.0 mm 0.00 in0.0 mm 0.00 in0.0 mm
05:55 AM 77.6°F25.3°C 70.5°F21.4°C 79% Calm Calm -- 29.40 in995.6 mb 0.00 in0.0 mm 0.00 in0.0 mm 0.00 in0.0 mm
06:00 AM 77.4°F25.2°C 70.8°F21.6°C 80% Calm Calm -- 29.40 in995.6 mb 0.00 in0.0 mm 0.00 in0.0 mm 0.00 in0.0 mm
06:05 AM 77.2°F25.1°C 70.5°F21.4°C 80% Calm Calm -- 29.40 in995.6 mb 0.00 in0.0 mm 0.00 in0.0 mm 0.00 in0.0 mm
06:10 AM 77.2°F25.1°C 70.7°F21.5°C 81% Calm Calm -- 29.40 in995.6 mb 0.00 in0.0 mm 0.00 in0.0 mm 0.00 in0.0 mm
06:15 AM 77.0°F25.0°C 70.7°F21.5°C 81% Calm Calm -- 29.40 in995.6 mb 0.00 in0.0 mm 0.00 in0.0 mm 0.00 in0.0 mm
06:20 AM 77.0°F25.0°C 70.6°F21.4°C 81% Calm Calm -- 29.40 in995.6 mb 0.00 in0.0 mm 0.00 in0.0 mm 0.00 in0.0 mm
06:25 AM 77.0°F25.0°C 70.3°F21.3°C 80% Calm Calm -- 29.40 in995.6 mb 0.00 in0.0 mm 0.00 in0.0 mm 0.00 in0.0 mm
06:30 AM 77.0°F25.0°C 70.3°F21.3°C 80% Calm Calm -- 29.40 in995.6 mb 0.00 in0.0 mm 0.00 in0.0 mm 0.00 in0.0 mm
06:35 AM 77.2°F25.1°C 70.4°F21.3°C 80% Calm Calm -- 29.41 in995.9 mb 0.00 in0.0 mm 0.00 in0.0 mm 0.00 in0.0 mm
06:40 AM 77.2°F25.1°C 69.6°F20.9°C 78% Calm Calm -- 29.41 in995.9 mb 0.00 in0.0 mm 0.00 in0.0 mm 0.00 in0.0 mm
06:45 AM 77.5°F25.3°C 69.0°F20.6°C 75% Calm Calm -- 29.41 in995.9 mb 0.00 in0.0 mm 0.00 in0.0 mm 0.00 in0.0 mm
06:50 AM 77.8°F25.4°C 68.5°F20.3°C 73% Calm Calm -- 29.41 in995.9 mb 0.00 in0.0 mm 0.00 in0.0 mm 0.00 in0.0 mm
06:55 AM 78.1°F25.6°C 69.0°F20.6°C 74% 2.5 mph NNW4.0 kmh NNW 4.9 mph7.9 kmh 29.41 in995.9 mb 0.00 in0.0 mm 0.00 in0.0 mm 0.00 in0.0 mm
07:00 AM 78.1°F25.6°C 69.6°F20.9°C 75% 2.4 mph NE3.9 kmh NE 4.9 mph7.9 kmh 29.41 in995.9 mb 0.00 in0.0 mm 0.00 in0.0 mm 0.00 in0.0 mm
07:05 AM 78.1°F25.6°C 69.9°F21.1°C 76% Calm Calm 2.5 mph4.0 kmh 29.41 in995.9 mb 0.00 in0.0 mm 0.00 in0.0 mm 0.00 in0.0 mm
07:10 AM 78.1°F25.6°C 69.3°F20.7°C 74% 0.7 mph NNE1.1 kmh NNE 2.5 mph4.0 kmh 29.41 in995.9 mb 0.00 in0.0 mm 0.00 in0.0 mm 0.00 in0.0 mm
07:15 AM 78.1°F25.6°C 68.1°F20.1°C 72% 1.2 mph N1.9 kmh N 4.9 mph7.9 kmh 29.41 in995.9 mb 0.00 in0.0 mm 0.00 in0.0 mm 0.00 in0.0 mm
07:20 AM 78.1°F25.6°C 67.6°F19.8°C 70% 1.6 mph N2.6 kmh N 4.9 mph7.9 kmh 29.41 in995.9 mb 0.00 in0.0 mm 0.00 in0.0 mm 0.00 in0.0 mm
07:25 AM 78.2°F25.7°C 68.0°F20.0°C 71% 1.6 mph N2.6 kmh N 4.9 mph7.9 kmh 29.41 in995.9 mb 0.00 in0.0 mm 0.00 in0.0 mm 0.00 in0.0 mm
07:30 AM 78.5°F25.8°C 68.3°F20.2°C 71% 3.6 mph NNE5.8 kmh NNE 7.4 mph11.9 kmh 29.41 in995.9 mb 0.00 in0.0 mm 0.00 in0.0 mm 0.00 in0.0 mm
07:35 AM 78.9°F26.1°C 69.1°F20.6°C 72% 2.2 mph NNE3.5 kmh NNE 4.9 mph7.9 kmh 29.41 in995.9 mb 0.00 in0.0 mm 0.00 in0.0 mm 0.00 in0.0 mm
07:40 AM 79.2°F26.2°C 69.3°F20.7°C 72% 2.6 mph N4.2 kmh N 4.9 mph7.9 kmh 29.41 in995.9 mb 0.00 in0.0 mm 0.00 in0.0 mm 0.00 in0.0 mm
07:45 AM 79.2°F26.2°C 69.6°F20.9°C 73% 2.5 mph NE4.0 kmh NE 9.8 mph15.8 kmh 29.41 in995.9 mb 0.00 in0.0 mm 0.00 in0.0 mm 0.00 in0.0 mm
07:50 AM 79.2°F26.2°C 70.0°F21.1°C 74% 2.1 mph N3.4 kmh N 4.9 mph7.9 kmh 29.41 in995.9 mb 0.00 in0.0 mm 0.00 in0.0 mm 0.00 in0.0 mm
07:55 AM 79.2°F26.2°C 70.6°F21.4°C 75% 1.1 mph NW1.8 kmh NW 4.9 mph7.9 kmh 29.42 in996.3 mb 0.00 in0.0 mm 0.00 in0.0 mm 0.00 in0.0 mm
08:00 AM 79.2°F26.2°C 70.6°F21.4°C 75% 0.4 mph E0.6 kmh E 2.5 mph4.0 kmh 29.41 in995.9 mb 0.00 in0.0 mm 0.00 in0.0 mm 0.00 in0.0 mm
08:05 AM 79.2°F26.2°C 70.3°F21.3°C 74% 1.4 mph N2.3 kmh N 4.9 mph7.9 kmh 29.41 in995.9 mb 0.00 in0.0 mm 0.00 in0.0 mm 0.00 in0.0 mm
08:10 AM 79.2°F26.2°C 69.5°F20.8°C 72% 3.4 mph NNE5.5 kmh NNE 7.4 mph11.9 kmh 29.42 in996.3 mb 0.00 in0.0 mm 0.00 in0.0 mm 0.00 in0.0 mm
08:15 AM 79.4°F26.3°C 69.3°F20.7°C 71% 3.8 mph N6.1 kmh N 7.4 mph11.9 kmh 29.41 in995.9 mb 0.00 in0.0 mm 0.00 in0.0 mm 0.00 in0.0 mm
08:20 AM 79.8°F26.6°C 69.1°F20.6°C 70% 3.9 mph NE6.3 kmh NE 7.4 mph11.9 kmh 29.41 in995.9 mb 0.00 in0.0 mm 0.00 in0.0 mm 0.00 in0.0 mm
08:25 AM 80.1°F26.7°C 69.4°F20.8°C 70% 1.6 mph N2.6 kmh N 7.4 mph11.9 kmh 29.42 in996.3 mb 0.00 in0.0 mm 0.00 in0.0 mm 0.00 in0.0 mm
08:30 AM 80.6°F27.0°C 69.5°F20.8°C 69% 4.5 mph NNE7.2 kmh NNE 9.8 mph15.8 kmh 29.41 in995.9 mb 0.00 in0.0 mm 0.00 in0.0 mm 0.00 in0.0 mm
08:35 AM 81.1°F27.3°C 69.9°F21.1°C 69% 3.3 mph NW5.3 kmh NW 4.9 mph7.9 kmh 29.41 in995.9 mb 0.00 in0.0 mm 0.00 in0.0 mm 0.00 in0.0 mm
08:40 AM 81.4°F27.4°C 69.7°F20.9°C 68% 3.8 mph N6.1 kmh N 9.8 mph15.8 kmh 29.41 in995.9 mb 0.00 in0.0 mm 0.00 in0.0 mm 0.00 in0.0 mm
08:45 AM 81.7°F27.6°C 69.8°F21.0°C 67% 4.2 mph NNE6.8 kmh NNE 7.4 mph11.9 kmh 29.41 in995.9 mb 0.00 in0.0 mm 0.00 in0.0 mm 0.00 in0.0 mm
08:50 AM 81.9°F27.7°C 70.3°F21.3°C 68% 4.8 mph N7.7 kmh N 9.8 mph15.8 kmh 29.41 in995.9 mb 0.00 in0.0 mm 0.00 in0.0 mm 0.00 in0.0 mm
08:55 AM 82.2°F27.9°C 70.0°F21.1°C 67% 3.2 mph N5.1 kmh N 7.4 mph11.9 kmh 29.42 in996.3 mb 0.00 in0.0 mm 0.00 in0.0 mm 0.00 in0.0 mm
09:00 AM 82.5°F28.1°C 69.6°F20.9°C 65% 2.5 mph N4.0 kmh N 4.9 mph7.9 kmh 29.42 in996.3 mb 0.00 in0.0 mm 0.00 in0.0 mm 0.00 in0.0 mm
09:05 AM 82.8°F28.2°C 70.1°F21.2°C 66% 3.5 mph N5.6 kmh N 7.4 mph11.9 kmh 29.42 in996.3 mb 0.00 in0.0 mm 0.00 in0.0 mm 0.00 in0.0 mm
09:10 AM 82.8°F28.2°C 70.6°F21.4°C 67% 4.3 mph N6.9 kmh N 7.4 mph11.9 kmh 29.42 in996.3 mb 0.00 in0.0 mm 0.00 in0.0 mm 0.00 in0.0 mm
09:15 AM 82.9°F28.3°C 70.5°F21.4°C 66% 3.7 mph NE6.0 kmh NE 7.4 mph11.9 kmh 29.42 in996.3 mb 0.00 in0.0 mm 0.00 in0.0 mm 0.00 in0.0 mm
09:20 AM 83.0°F28.3°C 70.2°F21.2°C 65% 4.1 mph NE6.6 kmh NE 9.8 mph15.8 kmh 29.41 in995.9 mb 0.00 in0.0 mm 0.00 in0.0 mm 0.00 in0.0 mm
09:25 AM 83.1°F28.4°C 70.4°F21.3°C 66% 1.4 mph NW2.3 kmh NW 4.9 mph7.9 kmh 29.42 in996.3 mb 0.00 in0.0 mm 0.00 in0.0 mm 0.00 in0.0 mm
09:30 AM 83.1°F28.4°C 69.7°F20.9°C 64% 2.3 mph NNW3.7 kmh NNW 7.4 mph11.9 kmh 29.41 in995.9 mb 0.00 in0.0 mm 0.00 in0.0 mm 0.00 in0.0 mm
09:35 AM 83.4°F28.6°C 69.5°F20.8°C 63% 3.4 mph NNE5.5 kmh NNE 4.9 mph7.9 kmh 29.41 in995.9 mb 0.00 in0.0 mm 0.00 in0.0 mm 0.00 in0.0 mm
09:40 AM 83.8°F28.8°C 69.4°F20.8°C 62% 2.1 mph NE3.4 kmh NE 4.9 mph7.9 kmh 29.41 in995.9 mb 0.00 in0.0 mm 0.00 in0.0 mm 0.00 in0.0 mm
09:45 AM 84.3°F29.1°C 69.3°F20.7°C 61% 2.7 mph NE4.3 kmh NE 7.4 mph11.9 kmh 29.41 in995.9 mb 0.00 in0.0 mm 0.00 in0.0 mm 0.00 in0.0 mm
09:50 AM 84.7°F29.3°C 70.1°F21.2°C 62% 2.7 mph N4.3 kmh N 7.4 mph11.9 kmh 29.41 in995.9 mb 0.00 in0.0 mm 0.00 in0.0 mm 0.00 in0.0 mm
09:55 AM 85.1°F29.5°C 69.7°F20.9°C 60% 2.6 mph NE4.2 kmh NE 7.4 mph11.9 kmh 29.41 in995.9 mb 0.00 in0.0 mm 0.00 in0.0 mm 0.00 in0.0 mm
10:00 AM 85.5°F29.7°C 70.1°F21.2°C 60% 0.9 mph NE1.4 kmh NE 2.5 mph4.0 kmh 29.41 in995.9 mb 0.00 in0.0 mm 0.00 in0.0 mm 0.00 in0.0 mm
10:05 AM 85.9°F29.9°C 69.4°F20.8°C 58% 2.3 mph E3.7 kmh E 7.4 mph11.9 kmh 29.41 in995.9 mb 0.00 in0.0 mm 0.00 in0.0 mm 0.00 in0.0 mm
10:10 AM 86.3°F30.2°C 69.2°F20.7°C 57% 1.9 mph NNE3.1 kmh NNE 4.9 mph7.9 kmh 29.41 in995.9 mb 0.00 in0.0 mm 0.00 in0.0 mm 0.00 in0.0 mm
10:15 AM 86.5°F30.3°C 69.5°F20.8°C 57% 3.5 mph NNW5.6 kmh NNW 7.4 mph11.9 kmh 29.41 in995.9 mb 0.00 in0.0 mm 0.00 in0.0 mm 0.00 in0.0 mm
10:20 AM 86.8°F30.4°C 70.3°F21.3°C 58% 4.0 mph N6.4 kmh N 7.4 mph11.9 kmh 29.41 in995.9 mb 0.00 in0.0 mm 0.00 in0.0 mm 0.00 in0.0 mm
10:25 AM 87.0°F30.6°C 70.3°F21.3°C 58% 3.9 mph NW6.3 kmh NW 7.4 mph11.9 kmh 29.41 in995.9 mb 0.00 in0.0 mm 0.00 in0.0 mm 0.00 in0.0 mm
10:30 AM 87.2°F30.7°C 69.8°F21.0°C 56% 2.3 mph N3.7 kmh N 7.4 mph11.9 kmh 29.41 in995.9 mb 0.00 in0.0 mm 0.00 in0.0 mm 0.00 in0.0 mm
10:35 AM 87.3°F30.7°C 69.6°F20.9°C 56% 3.3 mph NNE5.3 kmh NNE 7.4 mph11.9 kmh 29.41 in995.9 mb 0.00 in0.0 mm 0.00 in0.0 mm 0.00 in0.0 mm
10:40 AM 87.3°F30.7°C 70.2°F21.2°C 57% 3.0 mph N4.8 kmh N 7.4 mph11.9 kmh 29.41 in995.9 mb 0.00 in0.0 mm 0.00 in0.0 mm 0.00 in0.0 mm
10:45 AM 87.3°F30.7°C 69.8°F21.0°C 56% 4.1 mph NW6.6 kmh NW 9.8 mph15.8 kmh 29.41 in995.9 mb 0.00 in0.0 mm 0.00 in0.0 mm 0.00 in0.0 mm
10:50 AM 87.6°F30.9°C 69.7°F20.9°C 56% 4.4 mph NNE7.1 kmh NNE 12.3 mph19.8 kmh 29.41 in995.9 mb 0.00 in0.0 mm 0.00 in0.0 mm 0.00 in0.0 mm
10:55 AM 87.6°F30.9°C 71.0°F21.7°C 58% 4.8 mph NW7.7 kmh NW 7.4 mph11.9 kmh 29.41 in995.9 mb 0.00 in0.0 mm 0.00 in0.0 mm 0.00 in0.0 mm
11:00 AM 87.6°F30.9°C 70.7°F21.5°C 58% 4.2 mph N6.8 kmh N 9.8 mph15.8 kmh 29.41 in995.9 mb 0.00 in0.0 mm 0.00 in0.0 mm 0.00 in0.0 mm
11:05 AM 87.4°F30.8°C 71.6°F22.0°C 60% 3.2 mph NW5.1 kmh NW 4.9 mph7.9 kmh 29.41 in995.9 mb 0.00 in0.0 mm 0.00 in0.0 mm 0.00 in0.0 mm
11:10 AM 87.3°F30.7°C 71.4°F21.9°C 59% 2.7 mph NW4.3 kmh NW 7.4 mph11.9 kmh 29.40 in995.6 mb 0.00 in0.0 mm 0.00 in0.0 mm 0.00 in0.0 mm
11:15 AM 87.2°F30.7°C 71.0°F21.7°C 59% 3.3 mph NW5.3 kmh NW 7.4 mph11.9 kmh 29.40 in995.6 mb 0.00 in0.0 mm 0.00 in0.0 mm 0.00 in0.0 mm
11:20 AM 87.1°F30.6°C 70.7°F21.5°C 58% 2.8 mph NNW4.5 kmh NNW 4.9 mph7.9 kmh 29.40 in995.6 mb 0.00 in0.0 mm 0.00 in0.0 mm 0.00 in0.0 mm
11:25 AM 87.2°F30.7°C 69.6°F20.9°C 56% 3.0 mph ENE4.8 kmh ENE 9.8 mph15.8 kmh 29.40 in995.6 mb 0.00 in0.0 mm 0.00 in0.0 mm 0.00 in0.0 mm
11:30 AM 87.4°F30.8°C 69.4°F20.8°C 55% 3.6 mph NW5.8 kmh NW 15.0 mph24.1 kmh 29.40 in995.6 mb 0.00 in0.0 mm 0.00 in0.0 mm 0.00 in0.0 mm
11:35 AM 87.8°F31.0°C 69.2°F20.7°C 54% 2.3 mph NNW3.7 kmh NNW 7.4 mph11.9 kmh 29.40 in995.6 mb 0.00 in0.0 mm 0.00 in0.0 mm 0.00 in0.0 mm
11:40 AM 88.2°F31.2°C 69.4°F20.8°C 54% 1.8 mph NW2.9 kmh NW 7.4 mph11.9 kmh 29.39 in995.3 mb 0.00 in0.0 mm 0.00 in0.0 mm 0.00 in0.0 mm
11:45 AM 88.4°F31.3°C 68.9°F20.5°C 53% 3.8 mph NNW6.1 kmh NNW 9.8 mph15.8 kmh 29.39 in995.3 mb 0.00 in0.0 mm 0.00 in0.0 mm 0.00 in0.0 mm
11:50 AM 88.8°F31.6°C 69.4°F20.8°C 53% 2.7 mph N4.3 kmh N 7.4 mph11.9 kmh 29.39 in995.3 mb 0.00 in0.0 mm 0.00 in0.0 mm 0.00 in0.0 mm
11:55 AM 88.9°F31.6°C 69.2°F20.7°C 52% 3.1 mph NW5.0 kmh NW 4.9 mph7.9 kmh 29.39 in995.3 mb 0.00 in0.0 mm 0.00 in0.0 mm 0.00 in0.0 mm
12:00 PM 89.1°F31.7°C 69.0°F20.6°C 52% 2.3 mph N3.7 kmh N 7.4 mph11.9 kmh 29.39 in995.3 mb 0.00 in0.0 mm 0.00 in0.0 mm 0.00 in0.0 mm
12:05 PM 89.1°F31.7°C 69.4°F20.8°C 52% 2.4 mph NNW3.9 kmh NNW 7.4 mph11.9 kmh 29.39 in995.3 mb 0.00 in0.0 mm 0.00 in0.0 mm 0.00 in0.0 mm
12:10 PM 89.1°F31.7°C 69.2°F20.7°C 52% 3.5 mph N5.6 kmh N 7.4 mph11.9 kmh 29.38 in994.9 mb 0.00 in0.0 mm 0.00 in0.0 mm 0.00 in0.0 mm
12:15 PM 89.3°F31.8°C 69.0°F20.6°C 52% 3.7 mph N6.0 kmh N 9.8 mph15.8 kmh 29.39 in995.3 mb 0.00 in0.0 mm 0.00 in0.0 mm 0.00 in0.0 mm
12:20 PM 89.4°F31.9°C 69.1°F20.6°C 51% 1.2 mph N1.9 kmh N 7.4 mph11.9 kmh 29.38 in994.9 mb 0.00 in0.0 mm 0.00 in0.0 mm 0.00 in0.0 mm
12:25 PM 89.7°F32.1°C 69.2°F20.7°C 51% 3.6 mph N5.8 kmh N 12.3 mph19.8 kmh 29.37 in994.6 mb 0.00 in0.0 mm 0.00 in0.0 mm 0.00 in0.0 mm
12:30 PM 90.0°F32.2°C 68.8°F20.4°C 50% 3.2 mph N5.1 kmh N 4.9 mph7.9 kmh 29.38 in994.9 mb 0.00 in0.0 mm 0.00 in0.0 mm 0.00 in0.0 mm
12:35 PM 90.0°F32.2°C 69.0°F20.6°C 50% 4.0 mph N6.4 kmh N 7.4 mph11.9 kmh 29.38 in994.9 mb 0.00 in0.0 mm 0.00 in0.0 mm 0.00 in0.0 mm
12:40 PM 90.2°F32.3°C 69.0°F20.6°C 50% 3.1 mph N5.0 kmh N 7.4 mph11.9 kmh 29.38 in994.9 mb 0.00 in0.0 mm 0.00 in0.0 mm 0.00 in0.0 mm
12:45 PM 90.3°F32.4°C 69.3°F20.7°C 50% 4.2 mph N6.8 kmh N 12.3 mph19.8 kmh 29.37 in994.6 mb 0.00 in0.0 mm 0.00 in0.0 mm 0.00 in0.0 mm
12:50 PM 90.4°F32.4°C 69.2°F20.7°C 50% 4.0 mph N6.4 kmh N 7.4 mph11.9 kmh 29.36 in994.2 mb 0.00 in0.0 mm 0.00 in0.0 mm 0.00 in0.0 mm
12:55 PM 90.5°F32.5°C 69.4°F20.8°C 50% 3.0 mph N4.8 kmh N 4.9 mph7.9 kmh 29.36 in994.2 mb 0.00 in0.0 mm 0.00 in0.0 mm 0.00 in0.0 mm
01:00 PM 90.5°F32.5°C 68.8°F20.4°C 49% 3.3 mph N5.3 kmh N 7.4 mph11.9 kmh 29.36 in994.2 mb 0.00 in0.0 mm 0.00 in0.0 mm 0.00 in0.0 mm
01:05 PM 90.6°F32.6°C 69.3°F20.7°C 50% 3.4 mph N5.5 kmh N 7.4 mph11.9 kmh 29.35 in993.9 mb 0.00 in0.0 mm 0.00 in0.0 mm 0.00 in0.0 mm
01:10 PM 91.0°F32.8°C 68.3°F20.2°C 48% 3.5 mph NNW5.6 kmh NNW 7.4 mph11.9 kmh 29.35 in993.9 mb 0.00 in0.0 mm 0.00 in0.0 mm 0.00 in0.0 mm
01:15 PM 91.0°F32.8°C 68.5°F20.3°C 48% 4.2 mph NNE6.8 kmh NNE 7.4 mph11.9 kmh 29.34 in993.6 mb 0.00 in0.0 mm 0.00 in0.0 mm 0.00 in0.0 mm
01:20 PM 91.3°F32.9°C 68.1°F20.1°C 47% 3.4 mph N5.5 kmh N 7.4 mph11.9 kmh 29.35 in993.9 mb 0.00 in0.0 mm 0.00 in0.0 mm 0.00 in0.0 mm
01:25 PM 91.6°F33.1°C 68.1°F20.1°C 46% 5.0 mph NW8.0 kmh NW 7.4 mph11.9 kmh 29.34 in993.6 mb 0.00 in0.0 mm 0.00 in0.0 mm 0.00 in0.0 mm
01:30 PM 91.7°F33.2°C 68.3°F20.2°C 47% 2.3 mph N3.7 kmh N 7.4 mph11.9 kmh 29.34 in993.6 mb 0.00 in0.0 mm 0.00 in0.0 mm 0.00 in0.0 mm
01:35 PM 91.8°F33.2°C 67.9°F19.9°C 46% 3.6 mph N5.8 kmh N 7.4 mph11.9 kmh 29.34 in993.6 mb 0.00 in0.0 mm 0.00 in0.0 mm 0.00 in0.0 mm
01:40 PM 91.8°F33.2°C 68.1°F20.1°C 46% 5.2 mph NNW8.4 kmh NNW 9.8 mph15.8 kmh 29.34 in993.6 mb 0.00 in0.0 mm 0.00 in0.0 mm 0.00 in0.0 mm
01:45 PM 91.8°F33.2°C 66.9°F19.4°C 44% 2.5 mph N4.0 kmh N 7.4 mph11.9 kmh 29.34 in993.6 mb 0.00 in0.0 mm 0.00 in0.0 mm 0.00 in0.0 mm
01:50 PM 91.9°F33.3°C 67.0°F19.4°C 44% 2.8 mph NE4.5 kmh NE 7.4 mph11.9 kmh 29.33 in993.2 mb 0.00 in0.0 mm 0.00 in0.0 mm 0.00 in0.0 mm
01:55 PM 91.9°F33.3°C 68.0°F20.0°C 46% 4.5 mph NW7.2 kmh NW 9.8 mph15.8 kmh 29.33 in993.2 mb 0.00 in0.0 mm 0.00 in0.0 mm 0.00 in0.0 mm
02:00 PM 91.9°F33.3°C 67.7°F19.8°C 45% 3.1 mph NW5.0 kmh NW 7.4 mph11.9 kmh 29.32 in992.9 mb 0.00 in0.0 mm 0.00 in0.0 mm 0.00 in0.0 mm
02:05 PM 92.0°F33.3°C 66.5°F19.2°C 43% 4.2 mph NW6.8 kmh NW 9.8 mph15.8 kmh 29.32 in992.9 mb 0.00 in0.0 mm 0.00 in0.0 mm 0.00 in0.0 mm
02:10 PM 92.3°F33.5°C 65.6°F18.7°C 42% 3.0 mph NW4.8 kmh NW 7.4 mph11.9 kmh 29.32 in992.9 mb 0.00 in0.0 mm 0.00 in0.0 mm 0.00 in0.0 mm
02:15 PM 92.6°F33.7°C 66.0°F18.9°C 42% 2.6 mph NW4.2 kmh NW 7.4 mph11.9 kmh 29.32 in992.9 mb 0.00 in0.0 mm 0.00 in0.0 mm 0.00 in0.0 mm
02:20 PM 92.7°F33.7°C 67.2°F19.6°C 44% 3.8 mph NNE6.1 kmh NNE 9.8 mph15.8 kmh 29.32 in992.9 mb 0.00 in0.0 mm 0.00 in0.0 mm 0.00 in0.0 mm
02:25 PM 92.8°F33.8°C 68.3°F20.2°C 45% 3.1 mph N5.0 kmh N 7.4 mph11.9 kmh 29.32 in992.9 mb 0.00 in0.0 mm 0.00 in0.0 mm 0.00 in0.0 mm
02:30 PM 92.8°F33.8°C 68.1°F20.1°C 45% 1.9 mph N3.1 kmh N 4.9 mph7.9 kmh 29.32 in992.9 mb 0.00 in0.0 mm 0.00 in0.0 mm 0.00 in0.0 mm
02:35 PM 93.0°F33.9°C 67.5°F19.7°C 44% 4.1 mph NNW6.6 kmh NNW 9.8 mph15.8 kmh 29.31 in992.6 mb 0.00 in0.0 mm 0.00 in0.0 mm 0.00 in0.0 mm
02:40 PM 93.0°F33.9°C 67.8°F19.9°C 44% 4.4 mph N7.1 kmh N 9.8 mph15.8 kmh 29.31 in992.6 mb 0.00 in0.0 mm 0.00 in0.0 mm 0.00 in0.0 mm
02:45 PM 92.8°F33.8°C 69.0°F20.6°C 46% 2.8 mph N4.5 kmh N 7.4 mph11.9 kmh 29.31 in992.6 mb 0.00 in0.0 mm 0.00 in0.0 mm 0.00 in0.0 mm
02:50 PM 92.7°F33.7°C 70.2°F21.2°C 48% 4.4 mph N7.1 kmh N 9.8 mph15.8 kmh 29.30 in992.2 mb 0.00 in0.0 mm 0.00 in0.0 mm 0.00 in0.0 mm
02:55 PM 92.4°F33.6°C 70.7°F21.5°C 50% 3.8 mph N6.1 kmh N 9.8 mph15.8 kmh 29.30 in992.2 mb 0.00 in0.0 mm 0.00 in0.0 mm 0.00 in0.0 mm
03:00 PM 92.2°F33.4°C 70.3°F21.3°C 49% 4.9 mph N7.9 kmh N 12.3 mph19.8 kmh 29.31 in992.6 mb 0.00 in0.0 mm 0.00 in0.0 mm 0.00 in0.0 mm
03:05 PM 91.8°F33.2°C 69.9°F21.1°C 49% 3.9 mph NNW6.3 kmh NNW 7.4 mph11.9 kmh 29.31 in992.6 mb 0.00 in0.0 mm 0.00 in0.0 mm 0.00 in0.0 mm
03:10 PM 91.3°F32.9°C 69.4°F20.8°C 49% 4.1 mph N6.6 kmh N 9.8 mph15.8 kmh 29.30 in992.2 mb 0.00 in0.0 mm 0.00 in0.0 mm 0.00 in0.0 mm
03:15 PM 91.0°F32.8°C 69.1°F20.6°C 49% 4.0 mph NW6.4 kmh NW 7.4 mph11.9 kmh 29.30 in992.2 mb 0.00 in0.0 mm 0.00 in0.0 mm 0.00 in0.0 mm
03:20 PM 90.9°F32.7°C 69.0°F20.6°C 49% 5.5 mph N8.9 kmh N 9.8 mph15.8 kmh 29.30 in992.2 mb 0.00 in0.0 mm 0.00 in0.0 mm 0.00 in0.0 mm
03:25 PM 90.7°F32.6°C 68.8°F20.4°C 49% 2.9 mph NNE4.7 kmh NNE 7.4 mph11.9 kmh 29.30 in992.2 mb 0.00 in0.0 mm 0.00 in0.0 mm 0.00 in0.0 mm
03:30 PM 90.5°F32.5°C 68.4°F20.2°C 48% 3.6 mph NNW5.8 kmh NNW 12.3 mph19.8 kmh 29.29 in991.9 mb 0.00 in0.0 mm 0.00 in0.0 mm 0.00 in0.0 mm
03:35 PM 90.5°F32.5°C 68.3°F20.2°C 48% 4.3 mph NNW6.9 kmh NNW 12.3 mph19.8 kmh 29.29 in991.9 mb 0.00 in0.0 mm 0.00 in0.0 mm 0.00 in0.0 mm
03:40 PM 90.3°F32.4°C 68.5°F20.3°C 49% 3.7 mph N6.0 kmh N 7.4 mph11.9 kmh 29.28 in991.5 mb 0.00 in0.0 mm 0.00 in0.0 mm 0.00 in0.0 mm
03:45 PM 90.3°F32.4°C 68.5°F20.3°C 49% 5.7 mph NNW9.2 kmh NNW 9.8 mph15.8 kmh 29.28 in991.5 mb 0.00 in0.0 mm 0.00 in0.0 mm 0.00 in0.0 mm
03:50 PM 90.1°F32.3°C 68.3°F20.2°C 49% 2.2 mph N3.5 kmh N 7.4 mph11.9 kmh 29.28 in991.5 mb 0.00 in0.0 mm 0.00 in0.0 mm 0.00 in0.0 mm
03:55 PM 90.1°F32.3°C 68.3°F20.2°C 49% 0.9 mph NW1.4 kmh NW 2.5 mph4.0 kmh 29.28 in991.5 mb 0.00 in0.0 mm 0.00 in0.0 mm 0.00 in0.0 mm
04:00 PM 90.2°F32.3°C 67.9°F19.9°C 48% 2.1 mph NE3.4 kmh NE 4.9 mph7.9 kmh 29.28 in991.5 mb 0.00 in0.0 mm 0.00 in0.0 mm 0.00 in0.0 mm
04:05 PM 90.3°F32.4°C 68.3°F20.2°C 49% 2.9 mph NW4.7 kmh NW 7.4 mph11.9 kmh 29.28 in991.5 mb 0.00 in0.0 mm 0.00 in0.0 mm 0.00 in0.0 mm
04:10 PM 90.3°F32.4°C 68.5°F20.3°C 49% 1.7 mph NW2.7 kmh NW 4.9 mph7.9 kmh 29.28 in991.5 mb 0.00 in0.0 mm 0.00 in0.0 mm 0.00 in0.0 mm
04:15 PM 90.3°F32.4°C 68.5°F20.3°C 49% 3.5 mph NNW5.6 kmh NNW 7.4 mph11.9 kmh 29.28 in991.5 mb 0.00 in0.0 mm 0.00 in0.0 mm 0.00 in0.0 mm
04:20 PM 90.3°F32.4°C 68.9°F20.5°C 50% 2.1 mph N3.4 kmh N 4.9 mph7.9 kmh 29.28 in991.5 mb 0.00 in0.0 mm 0.00 in0.0 mm 0.00 in0.0 mm
04:25 PM 90.2°F32.3°C 69.0°F20.6°C 50% 4.1 mph NNE6.6 kmh NNE 9.8 mph15.8 kmh 29.28 in991.5 mb 0.00 in0.0 mm 0.00 in0.0 mm 0.00 in0.0 mm
04:30 PM 90.1°F32.3°C 68.6°F20.3°C 49% 3.3 mph NW5.3 kmh NW 7.4 mph11.9 kmh 29.27 in991.2 mb 0.00 in0.0 mm 0.00 in0.0 mm 0.00 in0.0 mm
04:35 PM 90.0°F32.2°C 68.8°F20.4°C 50% 5.5 mph NW8.9 kmh NW 9.8 mph15.8 kmh 29.28 in991.5 mb 0.00 in0.0 mm 0.00 in0.0 mm 0.00 in0.0 mm
04:40 PM 90.0°F32.2°C 68.7°F20.4°C 50% 5.8 mph N9.3 kmh N 12.3 mph19.8 kmh 29.28 in991.5 mb 0.00 in0.0 mm 0.00 in0.0 mm 0.00 in0.0 mm
04:45 PM 90.0°F32.2°C 68.4°F20.2°C 49% 5.5 mph NNW8.9 kmh NNW 7.4 mph11.9 kmh 29.27 in991.2 mb 0.00 in0.0 mm 0.00 in0.0 mm 0.00 in0.0 mm
04:50 PM 90.1°F32.3°C 68.3°F20.2°C 49% 5.2 mph N8.4 kmh N 9.8 mph15.8 kmh 29.28 in991.5 mb 0.00 in0.0 mm 0.00 in0.0 mm 0.00 in0.0 mm
04:55 PM 90.2°F32.3°C 68.0°F20.0°C 48% 2.8 mph NW4.5 kmh NW 7.4 mph11.9 kmh 29.28 in991.5 mb 0.00 in0.0 mm 0.00 in0.0 mm 0.00 in0.0 mm
05:00 PM 90.3°F32.4°C 68.3°F20.2°C 49% 3.4 mph NNW5.5 kmh NNW 7.4 mph11.9 kmh 29.28 in991.5 mb 0.00 in0.0 mm 0.00 in0.0 mm 0.00 in0.0 mm
05:05 PM 90.3°F32.4°C 68.5°F20.3°C 49% 3.9 mph N6.3 kmh N 7.4 mph11.9 kmh 29.28 in991.5 mb 0.00 in0.0 mm 0.00 in0.0 mm 0.00 in0.0 mm
05:10 PM 90.3°F32.4°C 68.5°F20.3°C 49% 3.4 mph N5.5 kmh N 7.4 mph11.9 kmh 29.29 in991.9 mb 0.00 in0.0 mm 0.00 in0.0 mm 0.00 in0.0 mm
05:15 PM 90.3°F32.4°C 68.5°F20.3°C 49% 2.1 mph NNW3.4 kmh NNW 4.9 mph7.9 kmh 29.29 in991.9 mb 0.00 in0.0 mm 0.00 in0.0 mm 0.00 in0.0 mm
05:20 PM 90.2°F32.3°C 68.4°F20.2°C 49% 3.5 mph ENE5.6 kmh ENE 7.4 mph11.9 kmh 29.29 in991.9 mb 0.00 in0.0 mm 0.00 in0.0 mm 0.00 in0.0 mm
05:25 PM 90.0°F32.2°C 69.7°F20.9°C 52% 6.7 mph SE10.8 kmh SE 15.0 mph24.1 kmh 29.30 in992.2 mb 0.00 in0.0 mm 0.00 in0.0 mm 0.00 in0.0 mm
05:30 PM 89.0°F31.7°C 73.3°F22.9°C 60% 7.9 mph SSE12.7 kmh SSE 17.4 mph28.0 kmh 29.30 in992.2 mb 0.00 in0.0 mm 0.00 in0.0 mm 0.00 in0.0 mm
05:35 PM 87.8°F31.0°C 74.2°F23.4°C 64% 10.3 mph SSE16.6 kmh SSE 17.4 mph28.0 kmh 29.31 in992.6 mb 0.00 in0.0 mm 0.00 in0.0 mm 0.00 in0.0 mm
05:40 PM 86.4°F30.2°C 74.2°F23.4°C 67% 13.1 mph S21.1 kmh S 22.4 mph36.0 kmh 29.31 in992.6 mb 0.00 in0.0 mm 0.00 in0.0 mm 0.00 in0.0 mm
05:45 PM 85.1°F29.5°C 73.8°F23.2°C 69% 5.6 mph S9.0 kmh S 17.4 mph28.0 kmh 29.31 in992.6 mb 0.00 in0.0 mm 0.00 in0.0 mm 0.00 in0.0 mm
05:50 PM 83.7°F28.7°C 72.4°F22.4°C 69% 5.8 mph SSW9.3 kmh SSW 12.3 mph19.8 kmh 29.31 in992.6 mb 0.00 in0.0 mm 0.00 in0.0 mm 0.00 in0.0 mm
05:55 PM 82.4°F28.0°C 71.2°F21.8°C 69% 5.4 mph S8.7 kmh S 15.0 mph24.1 kmh 29.31 in992.6 mb 0.00 in0.0 mm 0.00 in0.0 mm 0.00 in0.0 mm
06:00 PM 81.7°F27.6°C 70.5°F21.4°C 69% 5.0 mph S8.0 kmh S 12.3 mph19.8 kmh 29.31 in992.6 mb 0.00 in0.0 mm 0.00 in0.0 mm 0.00 in0.0 mm
06:05 PM 81.3°F27.4°C 70.0°F21.1°C 69% 3.3 mph SW5.3 kmh SW 7.4 mph11.9 kmh 29.31 in992.6 mb 0.00 in0.0 mm 0.00 in0.0 mm 0.00 in0.0 mm
06:10 PM 81.1°F27.3°C 69.5°F20.8°C 68% 4.3 mph S6.9 kmh S 9.8 mph15.8 kmh 29.31 in992.6 mb 0.00 in0.0 mm 0.00 in0.0 mm 0.00 in0.0 mm
06:15 PM 81.0°F27.2°C 69.5°F20.8°C 68% 3.2 mph S5.1 kmh S 7.4 mph11.9 kmh 29.32 in992.9 mb 0.00 in0.0 mm 0.00 in0.0 mm 0.00 in0.0 mm
06:20 PM 80.9°F27.2°C 70.2°F21.2°C 70% 7.8 mph SSE12.6 kmh SSE 15.0 mph24.1 kmh 29.32 in992.9 mb 0.00 in0.0 mm 0.00 in0.0 mm 0.00 in0.0 mm
06:25 PM 80.6°F27.0°C 70.1°F21.2°C 71% 10.0 mph SSE16.1 kmh SSE 17.4 mph28.0 kmh 29.32 in992.9 mb 0.00 in0.0 mm 0.00 in0.0 mm 0.00 in0.0 mm
06:30 PM 80.3°F26.8°C 69.9°F21.1°C 71% 8.2 mph SSE13.2 kmh SSE 12.3 mph19.8 kmh 29.32 in992.9 mb 0.00 in0.0 mm 0.00 in0.0 mm 0.00 in0.0 mm
06:35 PM 80.0°F26.7°C 69.7°F20.9°C 71% 4.2 mph S6.8 kmh S 9.8 mph15.8 kmh 29.32 in992.9 mb 0.00 in0.0 mm 0.00 in0.0 mm 0.00 in0.0 mm
06:40 PM 79.6°F26.4°C 69.3°F20.7°C 71% 4.4 mph S7.1 kmh S 9.8 mph15.8 kmh 29.32 in992.9 mb 0.00 in0.0 mm 0.00 in0.0 mm 0.00 in0.0 mm
06:45 PM 79.3°F26.3°C 69.0°F20.6°C 71% 3.8 mph S6.1 kmh S 7.4 mph11.9 kmh 29.32 in992.9 mb 0.00 in0.0 mm 0.00 in0.0 mm 0.00 in0.0 mm
06:50 PM 79.2°F26.2°C 69.2°F20.7°C 72% 2.1 mph SSE3.4 kmh SSE 9.8 mph15.8 kmh 29.32 in992.9 mb 0.00 in0.0 mm 0.00 in0.0 mm 0.00 in0.0 mm
06:55 PM 79.0°F26.1°C 69.2°F20.7°C 72% 2.5 mph SSE4.0 kmh SSE 7.4 mph11.9 kmh 29.32 in992.9 mb 0.00 in0.0 mm 0.00 in0.0 mm 0.00 in0.0 mm
07:00 PM 79.0°F26.1°C 69.2°F20.7°C 72% 0.7 mph S1.1 kmh S 4.9 mph7.9 kmh 29.32 in992.9 mb 0.00 in0.0 mm 0.00 in0.0 mm 0.00 in0.0 mm
07:05 PM 79.0°F26.1°C 69.4°F20.8°C 72% 0.8 mph SE1.3 kmh SE 4.9 mph7.9 kmh 29.32 in992.9 mb 0.00 in0.0 mm 0.00 in0.0 mm 0.00 in0.0 mm
07:10 PM 79.0°F26.1°C 70.0°F21.1°C 74% Calm Calm -- 29.32 in992.9 mb 0.00 in0.0 mm 0.00 in0.0 mm 0.00 in0.0 mm
07:15 PM 78.9°F26.1°C 69.9°F21.1°C 74% Calm Calm 2.5 mph4.0 kmh 29.32 in992.9 mb 0.00 in0.0 mm 0.00 in0.0 mm 0.00 in0.0 mm
07:20 PM 78.8°F26.0°C 70.2°F21.2°C 75% 0.1 mph WSW0.2 kmh WSW 2.5 mph4.0 kmh 29.32 in992.9 mb 0.00 in0.0 mm 0.00 in0.0 mm 0.00 in0.0 mm
07:25 PM 78.7°F25.9°C 70.5°F21.4°C 76% 0.4 mph WSW0.6 kmh WSW 2.5 mph4.0 kmh 29.32 in992.9 mb 0.00 in0.0 mm 0.00 in0.0 mm 0.00 in0.0 mm
07:30 PM 78.6°F25.9°C 70.7°F21.5°C 77% 0.4 mph WSW0.6 kmh WSW 2.5 mph4.0 kmh 29.32 in992.9 mb 0.00 in0.0 mm 0.00 in0.0 mm 0.00 in0.0 mm
07:35 PM 78.4°F25.8°C 70.5°F21.4°C 77% Calm Calm 2.5 mph4.0 kmh 29.32 in992.9 mb 0.00 in0.0 mm 0.00 in0.0 mm 0.00 in0.0 mm
07:40 PM 78.2°F25.7°C 70.0°F21.1°C 76% 0.2 mph SW0.3 kmh SW 2.5 mph4.0 kmh 29.32 in992.9 mb 0.00 in0.0 mm 0.00 in0.0 mm 0.00 in0.0 mm
07:45 PM 77.9°F25.5°C 69.7°F20.9°C 76% Calm Calm -- 29.31 in992.6 mb 0.00 in0.0 mm 0.00 in0.0 mm 0.00 in0.0 mm
07:50 PM 77.6°F25.3°C 69.5°F20.8°C 76% 0.7 mph W1.1 kmh W 4.9 mph7.9 kmh 29.31 in992.6 mb 0.00 in0.0 mm 0.00 in0.0 mm 0.00 in0.0 mm
07:55 PM 77.4°F25.2°C 69.6°F20.9°C 77% Calm Calm -- 29.31 in992.6 mb 0.00 in0.0 mm 0.00 in0.0 mm 0.00 in0.0 mm
08:00 PM 77.2°F25.1°C 69.8°F21.0°C 78% Calm Calm -- 29.31 in992.6 mb 0.00 in0.0 mm 0.00 in0.0 mm 0.00 in0.0 mm
08:05 PM 77.2°F25.1°C 69.8°F21.0°C 78% Calm Calm 2.5 mph4.0 kmh 29.31 in992.6 mb 0.00 in0.0 mm 0.00 in0.0 mm 0.00 in0.0 mm
08:10 PM 77.2°F25.1°C 69.8°F21.0°C 78% 0.7 mph N1.1 kmh N 2.5 mph4.0 kmh 29.32 in992.9 mb 0.00 in0.0 mm 0.00 in0.0 mm 0.00 in0.0 mm
08:15 PM 77.2°F25.1°C 69.8°F21.0°C 78% Calm Calm 2.5 mph4.0 kmh 29.32 in992.9 mb 0.00 in0.0 mm 0.00 in0.0 mm 0.00 in0.0 mm
08:20 PM 77.2°F25.1°C 70.0°F21.1°C 78% 1.8 mph N2.9 kmh N 4.9 mph7.9 kmh 29.32 in992.9 mb 0.00 in0.0 mm 0.00 in0.0 mm 0.00 in0.0 mm
08:25 PM 77.2°F25.1°C 70.2°F21.2°C 79% 0.3 mph NW0.5 kmh NW 2.5 mph4.0 kmh 29.32 in992.9 mb 0.00 in0.0 mm 0.00 in0.0 mm 0.00 in0.0 mm
08:30 PM 77.2°F25.1°C 70.2°F21.2°C 79% 2.7 mph NNE4.3 kmh NNE 4.9 mph7.9 kmh 29.32 in992.9 mb 0.00 in0.0 mm 0.00 in0.0 mm 0.00 in0.0 mm
08:35 PM 77.2°F25.1°C 69.8°F21.0°C 78% 2.2 mph ENE3.5 kmh ENE 4.9 mph7.9 kmh 29.32 in992.9 mb 0.00 in0.0 mm 0.00 in0.0 mm 0.00 in0.0 mm
08:40 PM 77.2°F25.1°C 69.8°F21.0°C 78% 2.4 mph ENE3.9 kmh ENE 4.9 mph7.9 kmh 29.32 in992.9 mb 0.00 in0.0 mm 0.00 in0.0 mm 0.00 in0.0 mm
08:45 PM 77.2°F25.1°C 69.8°F21.0°C 78% 1.1 mph ENE1.8 kmh ENE 4.9 mph7.9 kmh 29.33 in993.2 mb 0.00 in0.0 mm 0.00 in0.0 mm 0.00 in0.0 mm
08:50 PM 77.2°F25.1°C 69.8°F21.0°C 78% Calm Calm -- 29.33 in993.2 mb 0.00 in0.0 mm 0.00 in0.0 mm 0.00 in0.0 mm
08:55 PM 77.2°F25.1°C 70.2°F21.2°C 79% 0.4 mph NNE0.6 kmh NNE 2.5 mph4.0 kmh 29.33 in993.2 mb 0.00 in0.0 mm 0.00 in0.0 mm 0.00 in0.0 mm
09:00 PM 77.2°F25.1°C 70.5°F21.4°C 80% 1.4 mph E2.3 kmh E 4.9 mph7.9 kmh 29.33 in993.2 mb 0.00 in0.0 mm 0.00 in0.0 mm 0.00 in0.0 mm
09:05 PM 77.2°F25.1°C 70.9°F21.6°C 81% 1.8 mph NE2.9 kmh NE 4.9 mph7.9 kmh 29.34 in993.6 mb 0.00 in0.0 mm 0.00 in0.0 mm 0.00 in0.0 mm
09:10 PM 77.2°F25.1°C 71.1°F21.7°C 82% 1.6 mph ENE2.6 kmh ENE 4.9 mph7.9 kmh 29.34 in993.6 mb 0.00 in0.0 mm 0.00 in0.0 mm 0.00 in0.0 mm
09:15 PM 77.2°F25.1°C 71.3°F21.8°C 82% 2.7 mph NE4.3 kmh NE 4.9 mph7.9 kmh 29.34 in993.6 mb 0.00 in0.0 mm 0.00 in0.0 mm 0.00 in0.0 mm
09:20 PM 77.2°F25.1°C 71.0°F21.7°C 81% 3.2 mph ENE5.1 kmh ENE 7.4 mph11.9 kmh 29.34 in993.6 mb 0.00 in0.0 mm 0.00 in0.0 mm 0.00 in0.0 mm
09:25 PM 77.2°F25.1°C 70.9°F21.6°C 81% 2.4 mph E3.9 kmh E 7.4 mph11.9 kmh 29.34 in993.6 mb 0.00 in0.0 mm 0.00 in0.0 mm 0.00 in0.0 mm
09:30 PM 77.2°F25.1°C 70.9°F21.6°C 81% 2.4 mph SSE3.9 kmh SSE 7.4 mph11.9 kmh 29.34 in993.6 mb 0.00 in0.0 mm 0.00 in0.0 mm 0.00 in0.0 mm
09:35 PM 77.2°F25.1°C 70.5°F21.4°C 80% 2.0 mph E3.2 kmh E 4.9 mph7.9 kmh 29.34 in993.6 mb 0.00 in0.0 mm 0.00 in0.0 mm 0.00 in0.0 mm
09:40 PM 77.3°F25.2°C 70.6°F21.4°C 80% 1.5 mph ENE2.4 kmh ENE 4.9 mph7.9 kmh 29.34 in993.6 mb 0.00 in0.0 mm 0.00 in0.0 mm 0.00 in0.0 mm
09:45 PM 77.5°F25.3°C 70.7°F21.5°C 80% 2.9 mph E4.7 kmh E 7.4 mph11.9 kmh 29.34 in993.6 mb 0.00 in0.0 mm 0.00 in0.0 mm 0.00 in0.0 mm
09:50 PM 77.8°F25.4°C 70.3°F21.3°C 78% 2.2 mph ESE3.5 kmh ESE 4.9 mph7.9 kmh 29.34 in993.6 mb 0.00 in0.0 mm 0.00 in0.0 mm 0.00 in0.0 mm
09:55 PM 78.0°F25.6°C 70.4°F21.3°C 78% 3.5 mph ESE5.6 kmh ESE 7.4 mph11.9 kmh 29.34 in993.6 mb 0.00 in0.0 mm 0.00 in0.0 mm 0.00 in0.0 mm
10:00 PM 78.3°F25.7°C 70.5°F21.4°C 77% 1.4 mph SE2.3 kmh SE 4.9 mph7.9 kmh 29.34 in993.6 mb 0.00 in0.0 mm 0.00 in0.0 mm 0.00 in0.0 mm
10:05 PM 78.4°F25.8°C 70.6°F21.4°C 77% 0.8 mph E1.3 kmh E 2.5 mph4.0 kmh 29.34 in993.6 mb 0.00 in0.0 mm 0.00 in0.0 mm 0.00 in0.0 mm
10:10 PM 78.6°F25.9°C 70.8°F21.6°C 77% 0.8 mph NE1.3 kmh NE 4.9 mph7.9 kmh 29.34 in993.6 mb 0.00 in0.0 mm 0.00 in0.0 mm 0.00 in0.0 mm
10:15 PM 78.6°F25.9°C 70.8°F21.6°C 77% 0.6 mph E1.0 kmh E 2.5 mph4.0 kmh 29.34 in993.6 mb 0.00 in0.0 mm 0.00 in0.0 mm 0.00 in0.0 mm
10:20 PM 78.6°F25.9°C 70.7°F21.5°C 77% 1.3 mph E2.1 kmh E 4.9 mph7.9 kmh 29.34 in993.6 mb 0.00 in0.0 mm 0.00 in0.0 mm 0.00 in0.0 mm
10:25 PM 78.6°F25.9°C 70.5°F21.4°C 76% 3.2 mph E5.1 kmh E 4.9 mph7.9 kmh 29.34 in993.6 mb 0.00 in0.0 mm 0.00 in0.0 mm 0.00 in0.0 mm
10:30 PM 78.6°F25.9°C 70.4°F21.3°C 76% 3.7 mph E6.0 kmh E 7.4 mph11.9 kmh 29.34 in993.6 mb 0.00 in0.0 mm 0.00 in0.0 mm 0.00 in0.0 mm
10:35 PM 78.6°F25.9°C 70.2°F21.2°C 76% 5.7 mph SE9.2 kmh SE 9.8 mph15.8 kmh 29.34 in993.6 mb 0.00 in0.0 mm 0.00 in0.0 mm 0.00 in0.0 mm
10:40 PM 78.6°F25.9°C 70.3°F21.3°C 76% 5.1 mph ESE8.2 kmh ESE 9.8 mph15.8 kmh 29.34 in993.6 mb 0.00 in0.0 mm 0.00 in0.0 mm 0.00 in0.0 mm
10:45 PM 78.6°F25.9°C 70.4°F21.3°C 76% 5.6 mph SE9.0 kmh SE 9.8 mph15.8 kmh 29.34 in993.6 mb 0.00 in0.0 mm 0.00 in0.0 mm 0.00 in0.0 mm
10:50 PM 78.5°F25.8°C 70.3°F21.3°C 76% 2.9 mph SE4.7 kmh SE 7.4 mph11.9 kmh 29.34 in993.6 mb 0.00 in0.0 mm 0.00 in0.0 mm 0.00 in0.0 mm
10:55 PM 78.3°F25.7°C 70.1°F21.2°C 76% 2.7 mph SSE4.3 kmh SSE 7.4 mph11.9 kmh 29.34 in993.6 mb 0.00 in0.0 mm 0.00 in0.0 mm 0.00 in0.0 mm
11:00 PM 78.1°F25.6°C 69.9°F21.1°C 76% 4.0 mph SE6.4 kmh SE 9.8 mph15.8 kmh 29.34 in993.6 mb 0.00 in0.0 mm 0.00 in0.0 mm 0.00 in0.0 mm
11:05 PM 77.8°F25.4°C 69.5°F20.8°C 76% 2.4 mph ESE3.9 kmh ESE 4.9 mph7.9 kmh 29.34 in993.6 mb 0.00 in0.0 mm 0.00 in0.0 mm 0.00 in0.0 mm
11:10 PM 77.6°F25.3°C 69.0°F20.6°C 75% 0.6 mph E1.0 kmh E 2.5 mph4.0 kmh 29.34 in993.6 mb 0.00 in0.0 mm 0.00 in0.0 mm 0.00 in0.0 mm
11:15 PM 77.5°F25.3°C 68.8°F20.4°C 75% 0.2 mph NNE0.3 kmh NNE 2.5 mph4.0 kmh 29.34 in993.6 mb 0.00 in0.0 mm 0.00 in0.0 mm 0.00 in0.0 mm
11:20 PM 77.5°F25.3°C 68.5°F20.3°C 74% 0.8 mph NE1.3 kmh NE 2.5 mph4.0 kmh 29.34 in993.6 mb 0.00 in0.0 mm 0.00 in0.0 mm 0.00 in0.0 mm
11:25 PM 77.7°F25.4°C 68.8°F20.4°C 74% 1.0 mph ESE1.6 kmh ESE 4.9 mph7.9 kmh 29.33 in993.2 mb 0.00 in0.0 mm 0.00 in0.0 mm 0.00 in0.0 mm
11:30 PM 78.0°F25.6°C 69.0°F20.6°C 74% 0.6 mph ENE1.0 kmh ENE 2.5 mph4.0 kmh 29.33 in993.2 mb 0.00 in0.0 mm 0.00 in0.0 mm 0.00 in0.0 mm
11:35 PM 78.2°F25.7°C 69.2°F20.7°C 74% 1.7 mph NE2.7 kmh NE 4.9 mph7.9 kmh 29.33 in993.2 mb 0.00 in0.0 mm 0.00 in0.0 mm 0.00 in0.0 mm
11:40 PM 78.4°F25.8°C 69.4°F20.8°C 74% 0.4 mph NE0.6 kmh NE 2.5 mph4.0 kmh 29.33 in993.2 mb 0.00 in0.0 mm 0.00 in0.0 mm 0.00 in0.0 mm
11:45 PM 78.6°F25.9°C 69.8°F21.0°C 75% 2.6 mph E4.2 kmh E 4.9 mph7.9 kmh 29.33 in993.2 mb 0.00 in0.0 mm 0.00 in0.0 mm 0.00 in0.0 mm
11:50 PM 78.4°F25.8°C 69.8°F21.0°C 75% 1.8 mph ENE2.9 kmh ENE 7.4 mph11.9 kmh 29.32 in992.9 mb 0.00 in0.0 mm 0.00 in0.0 mm 0.00 in0.0 mm
11:55 PM 78.2°F25.7°C 70.0°F21.1°C 76% 0.5 mph NE0.8 kmh NE 2.5 mph4.0 kmh 29.32 in992.9 mb 0.00 in0.0 mm 0.00 in0.0 mm 0.00 in0.0 mm